sensor_id;sensor_type;location;lat;lon;timestamp;P1;durP1;ratioP1;P2;durP2;ratioP2
42364;SDS011;28498;54.400;18.566;2023-12-20T00:00:30;3.03;;;1.70;;
42364;SDS011;28498;54.400;18.566;2023-12-20T00:02:57;2.95;;;1.70;;
42364;SDS011;28498;54.400;18.566;2023-12-20T00:05:25;4.10;;;1.27;;
42364;SDS011;28498;54.400;18.566;2023-12-20T00:07:52;3.63;;;1.73;;
42364;SDS011;28498;54.400;18.566;2023-12-20T00:10:19;2.90;;;1.33;;
42364;SDS011;28498;54.400;18.566;2023-12-20T00:12:46;3.75;;;1.30;;
42364;SDS011;28498;54.400;18.566;2023-12-20T00:15:13;2.58;;;1.10;;
42364;SDS011;28498;54.400;18.566;2023-12-20T00:17:40;2.75;;;1.42;;
42364;SDS011;28498;54.400;18.566;2023-12-20T00:20:08;2.75;;;1.10;;
42364;SDS011;28498;54.400;18.566;2023-12-20T00:22:35;2.78;;;1.20;;
42364;SDS011;28498;54.400;18.566;2023-12-20T00:25:02;2.83;;;1.20;;
42364;SDS011;28498;54.400;18.566;2023-12-20T00:27:30;1.88;;;1.02;;
42364;SDS011;28498;54.400;18.566;2023-12-20T00:29:57;2.30;;;1.15;;
42364;SDS011;28498;54.400;18.566;2023-12-20T00:32:24;2.25;;;1.00;;
42364;SDS011;28498;54.400;18.566;2023-12-20T00:34:51;4.07;;;1.20;;
42364;SDS011;28498;54.400;18.566;2023-12-20T00:37:18;3.05;;;1.38;;
42364;SDS011;28498;54.400;18.566;2023-12-20T00:39:45;2.63;;;1.05;;
42364;SDS011;28498;54.400;18.566;2023-12-20T00:42:12;3.03;;;1.55;;
42364;SDS011;28498;54.400;18.566;2023-12-20T00:44:39;2.60;;;1.00;;
42364;SDS011;28498;54.400;18.566;2023-12-20T00:47:06;2.38;;;1.10;;
42364;SDS011;28498;54.400;18.566;2023-12-20T00:49:33;1.48;;;0.80;;
42364;SDS011;28498;54.400;18.566;2023-12-20T00:52:00;2.22;;;1.00;;
42364;SDS011;28498;54.400;18.566;2023-12-20T00:54:27;1.55;;;0.60;;
42364;SDS011;28498;54.400;18.566;2023-12-20T00:56:55;1.70;;;0.82;;
42364;SDS011;28498;54.400;18.566;2023-12-20T00:59:22;1.98;;;0.73;;
42364;SDS011;28498;54.400;18.566;2023-12-20T01:01:49;1.30;;;0.68;;
42364;SDS011;28498;54.400;18.566;2023-12-20T01:04:16;1.88;;;0.80;;
42364;SDS011;28498;54.400;18.566;2023-12-20T01:06:43;1.23;;;0.60;;
42364;SDS011;28498;54.400;18.566;2023-12-20T01:09:10;2.70;;;0.68;;
42364;SDS011;28498;54.400;18.566;2023-12-20T01:11:37;2.80;;;0.80;;
42364;SDS011;28498;54.400;18.566;2023-12-20T01:14:04;2.10;;;0.80;;
42364;SDS011;28498;54.400;18.566;2023-12-20T01:16:31;2.38;;;0.80;;
42364;SDS011;28498;54.400;18.566;2023-12-20T01:18:59;3.65;;;0.80;;
42364;SDS011;28498;54.400;18.566;2023-12-20T01:21:26;2.08;;;0.63;;
42364;SDS011;28498;54.400;18.566;2023-12-20T01:23:53;4.35;;;0.93;;
42364;SDS011;28498;54.400;18.566;2023-12-20T01:26:20;2.28;;;0.70;;
42364;SDS011;28498;54.400;18.566;2023-12-20T01:28:47;3.08;;;0.90;;
42364;SDS011;28498;54.400;18.566;2023-12-20T01:31:14;1.60;;;0.70;;
42364;SDS011;28498;54.400;18.566;2023-12-20T01:33:41;7.95;;;1.10;;
42364;SDS011;28498;54.400;18.566;2023-12-20T01:36:08;3.65;;;1.42;;
42364;SDS011;28498;54.400;18.566;2023-12-20T01:38:35;1.90;;;0.70;;
42364;SDS011;28498;54.400;18.566;2023-12-20T01:41:02;2.70;;;0.80;;
42364;SDS011;28498;54.400;18.566;2023-12-20T01:43:29;3.40;;;0.77;;
42364;SDS011;28498;54.400;18.566;2023-12-20T01:46:06;2.17;;;0.88;;
42364;SDS011;28498;54.400;18.566;2023-12-20T01:48:33;3.92;;;1.30;;
42364;SDS011;28498;54.400;18.566;2023-12-20T01:51:02;5.88;;;1.40;;
42364;SDS011;28498;54.400;18.566;2023-12-20T01:53:29;3.72;;;0.90;;
42364;SDS011;28498;54.400;18.566;2023-12-20T01:55:57;3.95;;;0.80;;
42364;SDS011;28498;54.400;18.566;2023-12-20T01:58:25;4.20;;;1.05;;
42364;SDS011;28498;54.400;18.566;2023-12-20T02:00:53;2.72;;;0.80;;
42364;SDS011;28498;54.400;18.566;2023-12-20T02:03:20;2.92;;;0.93;;
42364;SDS011;28498;54.400;18.566;2023-12-20T02:05:48;7.60;;;1.00;;
42364;SDS011;28498;54.400;18.566;2023-12-20T02:08:16;6.28;;;1.00;;
42364;SDS011;28498;54.400;18.566;2023-12-20T02:10:43;13.73;;;1.83;;
42364;SDS011;28498;54.400;18.566;2023-12-20T02:13:11;13.05;;;1.70;;
42364;SDS011;28498;54.400;18.566;2023-12-20T02:15:38;3.50;;;1.15;;
42364;SDS011;28498;54.400;18.566;2023-12-20T02:18:05;4.57;;;0.98;;
42364;SDS011;28498;54.400;18.566;2023-12-20T02:20:32;9.18;;;1.48;;
42364;SDS011;28498;54.400;18.566;2023-12-20T02:22:59;5.15;;;1.67;;
42364;SDS011;28498;54.400;18.566;2023-12-20T02:25:26;5.78;;;1.40;;
42364;SDS011;28498;54.400;18.566;2023-12-20T02:27:53;9.18;;;1.20;;
42364;SDS011;28498;54.400;18.566;2023-12-20T02:30:21;3.53;;;1.40;;
42364;SDS011;28498;54.400;18.566;2023-12-20T02:32:49;7.53;;;1.48;;
42364;SDS011;28498;54.400;18.566;2023-12-20T02:35:16;5.45;;;1.45;;
42364;SDS011;28498;54.400;18.566;2023-12-20T02:37:43;6.35;;;1.40;;
42364;SDS011;28498;54.400;18.566;2023-12-20T02:40:11;8.23;;;1.42;;
42364;SDS011;28498;54.400;18.566;2023-12-20T02:42:38;8.75;;;1.63;;
42364;SDS011;28498;54.400;18.566;2023-12-20T02:45:05;10.07;;;1.77;;
42364;SDS011;28498;54.400;18.566;2023-12-20T02:47:33;10.68;;;2.50;;
42364;SDS011;28498;54.400;18.566;2023-12-20T02:50:00;6.57;;;1.35;;
42364;SDS011;28498;54.400;18.566;2023-12-20T02:52:28;6.65;;;1.30;;
42364;SDS011;28498;54.400;18.566;2023-12-20T02:54:55;6.05;;;1.52;;
42364;SDS011;28498;54.400;18.566;2023-12-20T02:57:22;6.68;;;1.55;;
42364;SDS011;28498;54.400;18.566;2023-12-20T02:59:49;5.70;;;1.88;;
42364;SDS011;28498;54.400;18.566;2023-12-20T03:02:16;8.30;;;2.17;;
42364;SDS011;28498;54.400;18.566;2023-12-20T03:04:43;7.85;;;1.42;;
42364;SDS011;28498;54.400;18.566;2023-12-20T03:07:10;8.63;;;1.35;;
42364;SDS011;28498;54.400;18.566;2023-12-20T03:09:38;7.78;;;1.80;;
42364;SDS011;28498;54.400;18.566;2023-12-20T03:12:25;4.30;;;1.30;;
42364;SDS011;28498;54.400;18.566;2023-12-20T03:14:52;5.60;;;1.60;;
42364;SDS011;28498;54.400;18.566;2023-12-20T03:17:19;9.00;;;2.38;;
42364;SDS011;28498;54.400;18.566;2023-12-20T03:19:47;10.43;;;1.58;;
42364;SDS011;28498;54.400;18.566;2023-12-20T03:22:14;10.73;;;1.90;;
42364;SDS011;28498;54.400;18.566;2023-12-20T03:24:41;3.47;;;1.48;;
42364;SDS011;28498;54.400;18.566;2023-12-20T03:27:08;8.98;;;1.88;;
42364;SDS011;28498;54.400;18.566;2023-12-20T03:29:35;8.82;;;1.63;;
42364;SDS011;28498;54.400;18.566;2023-12-20T03:32:02;10.75;;;2.08;;
42364;SDS011;28498;54.400;18.566;2023-12-20T03:34:29;6.80;;;1.70;;
42364;SDS011;28498;54.400;18.566;2023-12-20T03:36:56;5.65;;;1.25;;
42364;SDS011;28498;54.400;18.566;2023-12-20T03:39:23;7.57;;;1.83;;
42364;SDS011;28498;54.400;18.566;2023-12-20T03:41:50;5.22;;;1.80;;
42364;SDS011;28498;54.400;18.566;2023-12-20T03:44:17;7.68;;;1.45;;
42364;SDS011;28498;54.400;18.566;2023-12-20T03:46:44;5.97;;;1.63;;
42364;SDS011;28498;54.400;18.566;2023-12-20T03:49:12;12.57;;;2.72;;
42364;SDS011;28498;54.400;18.566;2023-12-20T03:51:39;7.60;;;1.50;;
42364;SDS011;28498;54.400;18.566;2023-12-20T03:54:06;6.03;;;1.58;;
42364;SDS011;28498;54.400;18.566;2023-12-20T03:56:33;7.45;;;1.50;;
42364;SDS011;28498;54.400;18.566;2023-12-20T03:59:00;11.77;;;1.88;;
42364;SDS011;28498;54.400;18.566;2023-12-20T04:01:27;6.28;;;1.30;;
42364;SDS011;28498;54.400;18.566;2023-12-20T04:03:54;7.53;;;2.10;;
42364;SDS011;28498;54.400;18.566;2023-12-20T04:06:21;6.57;;;1.98;;
42364;SDS011;28498;54.400;18.566;2023-12-20T04:08:48;5.20;;;1.40;;
42364;SDS011;28498;54.400;18.566;2023-12-20T04:11:15;8.25;;;1.92;;
42364;SDS011;28498;54.400;18.566;2023-12-20T04:13:42;5.82;;;1.80;;
42364;SDS011;28498;54.400;18.566;2023-12-20T04:16:09;8.77;;;1.50;;
42364;SDS011;28498;54.400;18.566;2023-12-20T04:18:36;8.60;;;2.03;;
42364;SDS011;28498;54.400;18.566;2023-12-20T04:21:03;9.05;;;1.92;;
42364;SDS011;28498;54.400;18.566;2023-12-20T04:23:30;7.47;;;1.77;;
42364;SDS011;28498;54.400;18.566;2023-12-20T04:25:57;8.63;;;2.72;;
42364;SDS011;28498;54.400;18.566;2023-12-20T04:28:24;5.45;;;1.80;;
42364;SDS011;28498;54.400;18.566;2023-12-20T04:30:51;6.65;;;1.60;;
42364;SDS011;28498;54.400;18.566;2023-12-20T04:33:19;5.88;;;1.40;;
42364;SDS011;28498;54.400;18.566;2023-12-20T04:35:46;5.70;;;1.65;;
42364;SDS011;28498;54.400;18.566;2023-12-20T04:38:13;4.07;;;1.52;;
42364;SDS011;28498;54.400;18.566;2023-12-20T04:40:40;4.80;;;1.35;;
42364;SDS011;28498;54.400;18.566;2023-12-20T04:43:07;3.67;;;1.48;;
42364;SDS011;28498;54.400;18.566;2023-12-20T04:45:35;11.75;;;2.30;;
42364;SDS011;28498;54.400;18.566;2023-12-20T04:48:03;6.07;;;1.30;;
42364;SDS011;28498;54.400;18.566;2023-12-20T04:50:30;5.72;;;1.55;;
42364;SDS011;28498;54.400;18.566;2023-12-20T04:52:57;4.80;;;1.65;;
42364;SDS011;28498;54.400;18.566;2023-12-20T04:55:25;8.88;;;2.00;;
42364;SDS011;28498;54.400;18.566;2023-12-20T04:57:52;14.15;;;1.92;;
42364;SDS011;28498;54.400;18.566;2023-12-20T05:00:19;10.52;;;1.50;;
42364;SDS011;28498;54.400;18.566;2023-12-20T05:02:46;5.10;;;1.42;;
42364;SDS011;28498;54.400;18.566;2023-12-20T05:05:13;10.05;;;1.90;;
42364;SDS011;28498;54.400;18.566;2023-12-20T05:07:41;6.78;;;1.70;;
42364;SDS011;28498;54.400;18.566;2023-12-20T05:10:09;7.53;;;1.95;;
42364;SDS011;28498;54.400;18.566;2023-12-20T05:12:36;8.00;;;2.58;;
42364;SDS011;28498;54.400;18.566;2023-12-20T05:15:04;4.30;;;1.75;;
42364;SDS011;28498;54.400;18.566;2023-12-20T05:17:34;8.27;;;2.58;;
42364;SDS011;28498;54.400;18.566;2023-12-20T05:20:01;7.60;;;2.40;;
42364;SDS011;28498;54.400;18.566;2023-12-20T05:22:29;6.07;;;1.88;;
42364;SDS011;28498;54.400;18.566;2023-12-20T05:24:56;10.23;;;1.50;;
42364;SDS011;28498;54.400;18.566;2023-12-20T05:27:25;8.55;;;2.20;;
42364;SDS011;28498;54.400;18.566;2023-12-20T05:29:52;9.70;;;1.48;;
42364;SDS011;28498;54.400;18.566;2023-12-20T05:32:19;7.43;;;1.75;;
42364;SDS011;28498;54.400;18.566;2023-12-20T05:34:46;7.45;;;2.17;;
42364;SDS011;28498;54.400;18.566;2023-12-20T05:37:13;8.98;;;1.75;;
42364;SDS011;28498;54.400;18.566;2023-12-20T05:39:40;4.55;;;1.45;;
42364;SDS011;28498;54.400;18.566;2023-12-20T05:42:07;16.52;;;2.83;;
42364;SDS011;28498;54.400;18.566;2023-12-20T05:44:34;3.88;;;1.83;;
42364;SDS011;28498;54.400;18.566;2023-12-20T05:47:02;7.40;;;2.00;;
42364;SDS011;28498;54.400;18.566;2023-12-20T05:49:29;8.52;;;2.00;;
42364;SDS011;28498;54.400;18.566;2023-12-20T05:51:56;8.18;;;1.60;;
42364;SDS011;28498;54.400;18.566;2023-12-20T05:54:23;4.72;;;1.70;;
42364;SDS011;28498;54.400;18.566;2023-12-20T05:56:50;9.48;;;1.65;;
42364;SDS011;28498;54.400;18.566;2023-12-20T05:59:17;7.68;;;2.38;;
42364;SDS011;28498;54.400;18.566;2023-12-20T06:01:44;7.10;;;2.35;;
42364;SDS011;28498;54.400;18.566;2023-12-20T06:04:11;8.82;;;3.08;;
42364;SDS011;28498;54.400;18.566;2023-12-20T06:06:42;8.75;;;2.95;;
42364;SDS011;28498;54.400;18.566;2023-12-20T06:09:10;8.95;;;1.90;;
42364;SDS011;28498;54.400;18.566;2023-12-20T06:11:37;8.25;;;1.85;;
42364;SDS011;28498;54.400;18.566;2023-12-20T06:14:05;6.18;;;1.80;;
42364;SDS011;28498;54.400;18.566;2023-12-20T06:16:32;7.55;;;2.30;;
42364;SDS011;28498;54.400;18.566;2023-12-20T06:18:59;7.85;;;2.55;;
42364;SDS011;28498;54.400;18.566;2023-12-20T06:21:26;7.40;;;3.33;;
42364;SDS011;28498;54.400;18.566;2023-12-20T06:23:53;6.55;;;2.22;;
42364;SDS011;28498;54.400;18.566;2023-12-20T06:26:20;7.25;;;2.00;;
42364;SDS011;28498;54.400;18.566;2023-12-20T06:28:47;6.00;;;2.20;;
42364;SDS011;28498;54.400;18.566;2023-12-20T06:31:14;7.85;;;2.72;;
42364;SDS011;28498;54.400;18.566;2023-12-20T06:33:42;10.55;;;2.20;;
42364;SDS011;28498;54.400;18.566;2023-12-20T06:36:13;10.43;;;2.20;;
42364;SDS011;28498;54.400;18.566;2023-12-20T06:38:40;5.45;;;1.90;;
42364;SDS011;28498;54.400;18.566;2023-12-20T06:41:08;8.82;;;2.40;;
42364;SDS011;28498;54.400;18.566;2023-12-20T06:43:39;9.98;;;2.35;;
42364;SDS011;28498;54.400;18.566;2023-12-20T06:46:15;8.57;;;2.70;;
42364;SDS011;28498;54.400;18.566;2023-12-20T06:48:44;5.70;;;2.28;;
42364;SDS011;28498;54.400;18.566;2023-12-20T06:51:15;7.20;;;2.28;;
42364;SDS011;28498;54.400;18.566;2023-12-20T06:53:42;7.88;;;3.33;;
42364;SDS011;28498;54.400;18.566;2023-12-20T06:56:10;5.55;;;2.17;;
42364;SDS011;28498;54.400;18.566;2023-12-20T06:58:41;6.50;;;2.22;;
42364;SDS011;28498;54.400;18.566;2023-12-20T07:01:14;9.98;;;2.33;;
42364;SDS011;28498;54.400;18.566;2023-12-20T07:03:42;15.60;;;2.70;;
42364;SDS011;28498;54.400;18.566;2023-12-20T07:06:10;16.35;;;3.28;;
42364;SDS011;28498;54.400;18.566;2023-12-20T07:08:37;10.50;;;2.88;;
42364;SDS011;28498;54.400;18.566;2023-12-20T07:11:04;10.35;;;2.40;;
42364;SDS011;28498;54.400;18.566;2023-12-20T07:13:31;6.13;;;2.08;;
42364;SDS011;28498;54.400;18.566;2023-12-20T07:15:58;12.50;;;4.35;;
42364;SDS011;28498;54.400;18.566;2023-12-20T07:18:25;11.65;;;3.20;;
42364;SDS011;28498;54.400;18.566;2023-12-20T07:20:52;13.52;;;2.72;;
42364;SDS011;28498;54.400;18.566;2023-12-20T07:23:20;11.32;;;3.13;;
42364;SDS011;28498;54.400;18.566;2023-12-20T07:25:47;10.93;;;3.42;;
42364;SDS011;28498;54.400;18.566;2023-12-20T07:28:15;15.02;;;3.13;;
42364;SDS011;28498;54.400;18.566;2023-12-20T07:30:42;10.25;;;3.95;;
42364;SDS011;28498;54.400;18.566;2023-12-20T07:33:09;7.53;;;3.85;;
42364;SDS011;28498;54.400;18.566;2023-12-20T07:35:36;11.32;;;4.30;;
42364;SDS011;28498;54.400;18.566;2023-12-20T07:38:04;9.82;;;3.00;;
42364;SDS011;28498;54.400;18.566;2023-12-20T07:40:31;10.88;;;2.60;;
42364;SDS011;28498;54.400;18.566;2023-12-20T07:42:58;12.52;;;3.75;;
42364;SDS011;28498;54.400;18.566;2023-12-20T07:45:25;7.97;;;2.55;;
42364;SDS011;28498;54.400;18.566;2023-12-20T07:47:52;7.47;;;3.80;;
42364;SDS011;28498;54.400;18.566;2023-12-20T07:50:20;7.45;;;2.90;;
42364;SDS011;28498;54.400;18.566;2023-12-20T07:52:47;11.07;;;2.47;;
42364;SDS011;28498;54.400;18.566;2023-12-20T07:55:14;6.85;;;2.42;;
42364;SDS011;28498;54.400;18.566;2023-12-20T07:57:41;11.90;;;2.92;;
42364;SDS011;28498;54.400;18.566;2023-12-20T08:00:08;10.40;;;3.00;;
42364;SDS011;28498;54.400;18.566;2023-12-20T08:02:36;7.30;;;2.30;;
42364;SDS011;28498;54.400;18.566;2023-12-20T08:05:03;9.90;;;2.78;;
42364;SDS011;28498;54.400;18.566;2023-12-20T08:07:30;7.93;;;2.60;;
42364;SDS011;28498;54.400;18.566;2023-12-20T08:09:57;5.75;;;2.92;;
42364;SDS011;28498;54.400;18.566;2023-12-20T08:12:24;9.77;;;3.45;;
42364;SDS011;28498;54.400;18.566;2023-12-20T08:14:54;6.28;;;2.30;;
42364;SDS011;28498;54.400;18.566;2023-12-20T08:17:21;8.45;;;3.10;;
42364;SDS011;28498;54.400;18.566;2023-12-20T08:19:49;9.40;;;2.75;;
42364;SDS011;28498;54.400;18.566;2023-12-20T08:22:17;7.97;;;2.50;;
42364;SDS011;28498;54.400;18.566;2023-12-20T08:24:44;4.38;;;2.38;;
42364;SDS011;28498;54.400;18.566;2023-12-20T08:27:11;13.75;;;2.67;;
42364;SDS011;28498;54.400;18.566;2023-12-20T08:29:38;8.65;;;2.58;;
42364;SDS011;28498;54.400;18.566;2023-12-20T08:32:05;7.90;;;2.63;;
42364;SDS011;28498;54.400;18.566;2023-12-20T08:34:32;7.82;;;2.45;;
42364;SDS011;28498;54.400;18.566;2023-12-20T08:37:00;6.68;;;3.08;;
42364;SDS011;28498;54.400;18.566;2023-12-20T08:39:27;6.85;;;2.40;;
42364;SDS011;28498;54.400;18.566;2023-12-20T08:41:56;4.78;;;1.75;;
42364;SDS011;28498;54.400;18.566;2023-12-20T08:44:23;7.03;;;2.40;;
42364;SDS011;28498;54.400;18.566;2023-12-20T08:46:50;10.50;;;2.55;;
42364;SDS011;28498;54.400;18.566;2023-12-20T08:49:17;6.97;;;2.30;;
42364;SDS011;28498;54.400;18.566;2023-12-20T08:51:44;6.15;;;2.17;;
42364;SDS011;28498;54.400;18.566;2023-12-20T08:54:11;8.48;;;2.50;;
42364;SDS011;28498;54.400;18.566;2023-12-20T08:56:39;4.65;;;1.95;;
42364;SDS011;28498;54.400;18.566;2023-12-20T08:59:06;3.08;;;1.80;;
42364;SDS011;28498;54.400;18.566;2023-12-20T09:01:33;4.47;;;2.00;;
42364;SDS011;28498;54.400;18.566;2023-12-20T09:04:01;7.13;;;2.58;;
42364;SDS011;28498;54.400;18.566;2023-12-20T09:06:28;7.75;;;2.10;;
42364;SDS011;28498;54.400;18.566;2023-12-20T09:08:55;7.13;;;1.67;;
42364;SDS011;28498;54.400;18.566;2023-12-20T09:11:22;7.18;;;2.05;;
42364;SDS011;28498;54.400;18.566;2023-12-20T09:13:49;8.40;;;1.95;;
42364;SDS011;28498;54.400;18.566;2023-12-20T09:16:16;4.95;;;1.60;;
42364;SDS011;28498;54.400;18.566;2023-12-20T09:18:44;8.57;;;2.15;;
42364;SDS011;28498;54.400;18.566;2023-12-20T09:21:11;7.75;;;2.40;;
42364;SDS011;28498;54.400;18.566;2023-12-20T09:23:38;4.85;;;1.85;;
42364;SDS011;28498;54.400;18.566;2023-12-20T09:26:06;5.80;;;1.88;;
42364;SDS011;28498;54.400;18.566;2023-12-20T09:28:33;5.00;;;1.70;;
42364;SDS011;28498;54.400;18.566;2023-12-20T09:31:04;5.13;;;1.67;;
42364;SDS011;28498;54.400;18.566;2023-12-20T09:33:32;6.95;;;2.42;;
42364;SDS011;28498;54.400;18.566;2023-12-20T09:36:00;9.75;;;2.35;;
42364;SDS011;28498;54.400;18.566;2023-12-20T09:38:27;6.50;;;1.88;;
42364;SDS011;28498;54.400;18.566;2023-12-20T09:40:55;5.40;;;2.33;;
42364;SDS011;28498;54.400;18.566;2023-12-20T09:43:23;3.90;;;2.00;;
42364;SDS011;28498;54.400;18.566;2023-12-20T09:45:53;8.15;;;1.73;;
42364;SDS011;28498;54.400;18.566;2023-12-20T09:48:21;4.75;;;1.52;;
42364;SDS011;28498;54.400;18.566;2023-12-20T09:50:48;9.93;;;2.33;;
42364;SDS011;28498;54.400;18.566;2023-12-20T09:53:19;7.82;;;1.67;;
42364;SDS011;28498;54.400;18.566;2023-12-20T09:55:46;6.10;;;1.90;;
42364;SDS011;28498;54.400;18.566;2023-12-20T09:58:13;3.85;;;1.42;;
42364;SDS011;28498;54.400;18.566;2023-12-20T10:00:40;5.47;;;1.80;;
42364;SDS011;28498;54.400;18.566;2023-12-20T10:03:09;3.38;;;1.60;;
42364;SDS011;28498;54.400;18.566;2023-12-20T10:05:37;6.50;;;1.63;;
42364;SDS011;28498;54.400;18.566;2023-12-20T10:08:08;5.95;;;1.95;;
42364;SDS011;28498;54.400;18.566;2023-12-20T10:10:35;8.30;;;1.58;;
42364;SDS011;28498;54.400;18.566;2023-12-20T10:13:13;4.82;;;1.60;;
42364;SDS011;28498;54.400;18.566;2023-12-20T10:15:40;5.00;;;1.60;;
42364;SDS011;28498;54.400;18.566;2023-12-20T10:18:08;5.60;;;1.73;;
42364;SDS011;28498;54.400;18.566;2023-12-20T10:20:37;6.45;;;1.92;;
42364;SDS011;28498;54.400;18.566;2023-12-20T10:23:06;3.92;;;1.77;;
42364;SDS011;28498;54.400;18.566;2023-12-20T10:25:33;4.60;;;1.70;;
42364;SDS011;28498;54.400;18.566;2023-12-20T10:30:41;4.80;;;2.30;;
42364;SDS011;28498;54.400;18.566;2023-12-20T10:33:09;9.15;;;2.03;;
42364;SDS011;28498;54.400;18.566;2023-12-20T10:35:37;4.18;;;1.90;;
42364;SDS011;28498;54.400;18.566;2023-12-20T10:38:10;7.95;;;1.80;;
42364;SDS011;28498;54.400;18.566;2023-12-20T10:40:40;6.07;;;2.38;;
42364;SDS011;28498;54.400;18.566;2023-12-20T10:43:08;6.30;;;2.13;;
42364;SDS011;28498;54.400;18.566;2023-12-20T10:45:36;6.18;;;1.83;;
42364;SDS011;28498;54.400;18.566;2023-12-20T10:48:03;3.83;;;1.63;;
42364;SDS011;28498;54.400;18.566;2023-12-20T10:50:31;9.63;;;3.33;;
42364;SDS011;28498;54.400;18.566;2023-12-20T10:52:59;7.93;;;2.25;;
42364;SDS011;28498;54.400;18.566;2023-12-20T10:55:27;7.45;;;2.50;;
42364;SDS011;28498;54.400;18.566;2023-12-20T10:58:00;8.32;;;2.90;;
42364;SDS011;28498;54.400;18.566;2023-12-20T11:00:31;6.22;;;2.83;;
42364;SDS011;28498;54.400;18.566;2023-12-20T11:03:00;6.63;;;2.53;;
42364;SDS011;28498;54.400;18.566;2023-12-20T11:05:36;6.47;;;2.85;;
42364;SDS011;28498;54.400;18.566;2023-12-20T11:08:41;7.88;;;2.78;;
42364;SDS011;28498;54.400;18.566;2023-12-20T11:11:26;10.35;;;2.70;;
42364;SDS011;28498;54.400;18.566;2023-12-20T11:14:06;6.93;;;2.78;;
42364;SDS011;28498;54.400;18.566;2023-12-20T11:16:39;5.37;;;2.90;;
42364;SDS011;28498;54.400;18.566;2023-12-20T11:19:20;8.95;;;3.00;;
42364;SDS011;28498;54.400;18.566;2023-12-20T11:21:47;9.50;;;3.97;;
42364;SDS011;28498;54.400;18.566;2023-12-20T11:24:15;9.40;;;3.10;;
42364;SDS011;28498;54.400;18.566;2023-12-20T11:26:46;10.70;;;2.75;;
42364;SDS011;28498;54.400;18.566;2023-12-20T11:31:59;6.77;;;3.03;;
42364;SDS011;28498;54.400;18.566;2023-12-20T11:34:31;5.93;;;3.00;;
42364;SDS011;28498;54.400;18.566;2023-12-20T11:37:00;6.35;;;2.75;;
42364;SDS011;28498;54.400;18.566;2023-12-20T11:39:29;7.00;;;2.95;;
42364;SDS011;28498;54.400;18.566;2023-12-20T11:41:57;4.45;;;2.50;;
42364;SDS011;28498;54.400;18.566;2023-12-20T11:44:31;10.32;;;2.72;;
42364;SDS011;28498;54.400;18.566;2023-12-20T11:46:59;6.82;;;2.80;;
42364;SDS011;28498;54.400;18.566;2023-12-20T11:49:26;7.80;;;3.30;;
42364;SDS011;28498;54.400;18.566;2023-12-20T11:51:56;7.10;;;2.80;;
42364;SDS011;28498;54.400;18.566;2023-12-20T11:54:23;4.93;;;2.80;;
42364;SDS011;28498;54.400;18.566;2023-12-20T11:56:50;4.80;;;3.20;;
42364;SDS011;28498;54.400;18.566;2023-12-20T11:59:17;4.75;;;2.70;;
42364;SDS011;28498;54.400;18.566;2023-12-20T12:01:49;6.05;;;2.60;;
42364;SDS011;28498;54.400;18.566;2023-12-20T12:04:18;5.38;;;3.33;;
42364;SDS011;28498;54.400;18.566;2023-12-20T12:06:46;9.50;;;3.03;;
42364;SDS011;28498;54.400;18.566;2023-12-20T12:09:13;6.88;;;3.10;;
42364;SDS011;28498;54.400;18.566;2023-12-20T12:11:41;7.93;;;3.28;;
42364;SDS011;28498;54.400;18.566;2023-12-20T12:14:09;6.53;;;2.70;;
42364;SDS011;28498;54.400;18.566;2023-12-20T12:16:37;8.05;;;3.15;;
42364;SDS011;28498;54.400;18.566;2023-12-20T12:19:04;5.68;;;2.50;;
42364;SDS011;28498;54.400;18.566;2023-12-20T12:21:31;4.32;;;2.42;;
42364;SDS011;28498;54.400;18.566;2023-12-20T12:24:06;6.60;;;2.55;;
42364;SDS011;28498;54.400;18.566;2023-12-20T12:26:34;4.78;;;2.40;;
42364;SDS011;28498;54.400;18.566;2023-12-20T12:29:01;5.68;;;2.13;;
42364;SDS011;28498;54.400;18.566;2023-12-20T12:31:28;3.78;;;2.33;;
42364;SDS011;28498;54.400;18.566;2023-12-20T12:33:57;5.28;;;2.97;;
42364;SDS011;28498;54.400;18.566;2023-12-20T12:36:24;5.90;;;2.60;;
42364;SDS011;28498;54.400;18.566;2023-12-20T12:38:51;4.07;;;1.80;;
42364;SDS011;28498;54.400;18.566;2023-12-20T12:41:18;6.47;;;2.00;;
42364;SDS011;28498;54.400;18.566;2023-12-20T12:43:45;5.00;;;2.05;;
42364;SDS011;28498;54.400;18.566;2023-12-20T12:46:12;3.38;;;1.67;;
42364;SDS011;28498;54.400;18.566;2023-12-20T12:48:40;4.93;;;2.20;;
42364;SDS011;28498;54.400;18.566;2023-12-20T12:51:11;3.55;;;1.50;;
42364;SDS011;28498;54.400;18.566;2023-12-20T12:53:40;4.60;;;1.60;;
42364;SDS011;28498;54.400;18.566;2023-12-20T12:56:07;3.65;;;1.80;;
42364;SDS011;28498;54.400;18.566;2023-12-20T12:58:34;3.28;;;1.30;;
42364;SDS011;28498;54.400;18.566;2023-12-20T13:01:02;4.03;;;1.80;;
42364;SDS011;28498;54.400;18.566;2023-12-20T13:03:30;3.05;;;1.60;;
42364;SDS011;28498;54.400;18.566;2023-12-20T13:05:57;2.95;;;1.88;;
42364;SDS011;28498;54.400;18.566;2023-12-20T13:08:25;3.65;;;2.03;;
42364;SDS011;28498;54.400;18.566;2023-12-20T13:10:52;5.10;;;1.50;;
42364;SDS011;28498;54.400;18.566;2023-12-20T13:13:19;3.17;;;1.52;;
42364;SDS011;28498;54.400;18.566;2023-12-20T13:15:46;4.55;;;1.90;;
42364;SDS011;28498;54.400;18.566;2023-12-20T13:18:18;2.33;;;1.30;;
42364;SDS011;28498;54.400;18.566;2023-12-20T13:20:45;2.85;;;1.40;;
42364;SDS011;28498;54.400;18.566;2023-12-20T13:23:12;3.63;;;1.52;;
42364;SDS011;28498;54.400;18.566;2023-12-20T13:25:40;2.95;;;1.30;;
42364;SDS011;28498;54.400;18.566;2023-12-20T13:28:08;4.07;;;1.50;;
42364;SDS011;28498;54.400;18.566;2023-12-20T13:30:36;2.40;;;1.40;;
42364;SDS011;28498;54.400;18.566;2023-12-20T13:33:05;3.65;;;1.50;;
42364;SDS011;28498;54.400;18.566;2023-12-20T13:35:33;2.65;;;1.35;;
42364;SDS011;28498;54.400;18.566;2023-12-20T13:38:01;4.25;;;1.55;;
42364;SDS011;28498;54.400;18.566;2023-12-20T13:40:28;3.20;;;1.48;;
42364;SDS011;28498;54.400;18.566;2023-12-20T13:42:55;2.95;;;1.23;;
42364;SDS011;28498;54.400;18.566;2023-12-20T13:45:22;4.60;;;1.88;;
42364;SDS011;28498;54.400;18.566;2023-12-20T13:47:51;3.50;;;1.40;;
42364;SDS011;28498;54.400;18.566;2023-12-20T13:50:18;5.15;;;2.00;;
42364;SDS011;28498;54.400;18.566;2023-12-20T13:52:45;2.33;;;1.40;;
42364;SDS011;28498;54.400;18.566;2023-12-20T13:55:12;4.50;;;1.35;;
42364;SDS011;28498;54.400;18.566;2023-12-20T13:57:40;3.22;;;1.38;;
42364;SDS011;28498;54.400;18.566;2023-12-20T14:00:20;3.70;;;1.38;;
42364;SDS011;28498;54.400;18.566;2023-12-20T14:02:48;3.03;;;1.50;;
42364;SDS011;28498;54.400;18.566;2023-12-20T14:05:16;2.95;;;1.48;;
42364;SDS011;28498;54.400;18.566;2023-12-20T14:07:44;5.00;;;1.70;;
42364;SDS011;28498;54.400;18.566;2023-12-20T14:10:13;5.72;;;1.90;;
42364;SDS011;28498;54.400;18.566;2023-12-20T14:12:40;2.97;;;1.58;;
42364;SDS011;28498;54.400;18.566;2023-12-20T14:15:07;3.38;;;1.70;;
42364;SDS011;28498;54.400;18.566;2023-12-20T14:17:37;2.95;;;1.42;;
42364;SDS011;28498;54.400;18.566;2023-12-20T14:20:06;4.85;;;1.75;;
42364;SDS011;28498;54.400;18.566;2023-12-20T14:22:34;3.67;;;1.67;;
42364;SDS011;28498;54.400;18.566;2023-12-20T14:25:01;3.63;;;1.77;;
42364;SDS011;28498;54.400;18.566;2023-12-20T14:27:29;3.42;;;1.60;;
42364;SDS011;28498;54.400;18.566;2023-12-20T14:29:56;3.63;;;2.00;;
42364;SDS011;28498;54.400;18.566;2023-12-20T14:32:24;4.80;;;1.88;;
42364;SDS011;28498;54.400;18.566;2023-12-20T14:34:52;4.97;;;2.13;;
42364;SDS011;28498;54.400;18.566;2023-12-20T14:37:21;5.00;;;1.85;;
42364;SDS011;28498;54.400;18.566;2023-12-20T14:39:49;6.20;;;1.80;;
42364;SDS011;28498;54.400;18.566;2023-12-20T14:42:16;4.45;;;1.90;;